createdAt,value
2018-11-20T00:00:43.388Z,14.83
2018-11-20T00:03:38.084Z,20.85
2018-11-20T00:06:26.475Z,15.60
2018-11-20T00:09:14.447Z,16.40
2018-11-20T00:12:03.431Z,20.25
2018-11-20T00:14:59.057Z,18.07
2018-11-20T00:17:46.484Z,15.63
2018-11-20T00:20:34.179Z,16.43
2018-11-20T00:23:23.679Z,17.13
2018-11-20T00:26:26.363Z,16.40
2018-11-20T00:29:13.874Z,15.83
2018-11-20T00:32:03.341Z,15.77
2018-11-20T00:34:51.263Z,16.93
2018-11-20T00:37:38.618Z,16.23
2018-11-20T00:40:25.799Z,16.30
2018-11-20T00:43:13.388Z,16.43
2018-11-20T00:46:01.378Z,16.37
2018-11-20T00:48:52.797Z,16.27
2018-11-20T00:51:43.002Z,14.77
2018-11-20T00:57:40.084Z,16.27
2018-11-20T01:00:33.191Z,15.63
2018-11-20T01:03:27.007Z,16.73
2018-11-20T01:06:31.026Z,16.03
2018-11-20T01:09:18.812Z,16.67
2018-11-20T01:12:06.400Z,22.17
2018-11-20T01:14:55.232Z,17.77
2018-11-20T01:17:44.414Z,15.83
2018-11-20T01:20:32.672Z,16.40
2018-11-20T01:23:20.528Z,22.02
2018-11-20T01:26:09.106Z,17.07
2018-11-20T01:28:57.210Z,16.83
2018-11-20T01:31:45.137Z,21.75
2018-11-20T01:34:36.980Z,16.87
2018-11-20T01:37:24.501Z,22.07
2018-11-20T01:40:12.170Z,23.40
2018-11-20T01:42:59.345Z,18.07
2018-11-20T01:45:47.100Z,22.33
2018-11-20T01:48:35.258Z,17.23
2018-11-20T01:51:22.809Z,16.77
2018-11-20T01:54:10.177Z,15.60
2018-11-20T01:56:57.603Z,16.03
2018-11-20T01:59:44.795Z,16.27
2018-11-20T02:02:31.889Z,15.73
2018-11-20T02:05:19.122Z,16.00
2018-11-20T02:08:06.904Z,15.90
2018-11-20T02:10:54.312Z,15.80
2018-11-20T02:13:41.779Z,14.87
2018-11-20T02:16:29.177Z,21.90
2018-11-20T02:19:17.303Z,16.53
2018-11-20T02:22:05.317Z,15.47
2018-11-20T02:24:54.049Z,14.97
2018-11-20T02:27:41.596Z,15.47
2018-11-20T02:30:29.084Z,14.03
2018-11-20T02:33:16.801Z,13.63
2018-11-20T02:36:04.388Z,13.17
2018-11-20T02:38:52.853Z,13.83
2018-11-20T02:41:50.353Z,19.73
2018-11-20T02:44:38.521Z,13.07
2018-11-20T02:47:25.795Z,13.97
2018-11-20T02:50:13.417Z,17.83
2018-11-20T02:53:00.995Z,14.00
2018-11-20T02:55:48.101Z,13.87
2018-11-20T02:58:35.671Z,13.37
2018-11-20T03:01:23.152Z,13.30
2018-11-20T03:04:10.234Z,13.53
2018-11-20T03:06:57.496Z,12.87
2018-11-20T03:09:44.991Z,12.90
2018-11-20T03:12:32.162Z,13.17
2018-11-20T03:15:19.655Z,13.13
2018-11-20T03:18:07.650Z,14.00
2018-11-20T03:20:55.148Z,14.40
2018-11-20T03:23:42.570Z,14.53
2018-11-20T03:26:29.961Z,12.60
2018-11-20T03:29:17.527Z,13.53
2018-11-20T03:32:04.885Z,13.53
2018-11-20T03:34:52.510Z,14.47
2018-11-20T03:37:41.059Z,13.23
2018-11-20T03:40:28.358Z,14.07
2018-11-20T03:43:16.213Z,13.77
2018-11-20T03:46:03.680Z,13.70
2018-11-20T03:48:50.908Z,14.87
2018-11-20T03:51:38.356Z,14.67
2018-11-20T03:57:31.825Z,13.87
2018-11-20T04:00:19.290Z,15.57
2018-11-20T04:03:07.114Z,13.57
2018-11-20T04:05:54.273Z,14.53
2018-11-20T04:08:41.860Z,14.13
2018-11-20T04:11:29.382Z,15.07
2018-11-20T04:14:19.022Z,18.23
2018-11-20T04:17:08.895Z,15.17
2018-11-20T04:19:56.418Z,19.17
2018-11-20T04:22:43.964Z,15.03
2018-11-20T04:25:31.767Z,14.27
2018-11-20T04:28:20.014Z,14.50
2018-11-20T04:31:34.060Z,13.77
2018-11-20T04:34:21.053Z,14.00
2018-11-20T04:37:08.127Z,12.67
2018-11-20T04:39:55.686Z,13.33
2018-11-20T04:42:43.086Z,14.97
2018-11-20T04:45:32.412Z,14.07
2018-11-20T04:48:21.309Z,13.30
2018-11-20T04:51:08.886Z,14.17
2018-11-20T04:53:55.779Z,13.17
2018-11-20T04:59:50.475Z,12.83
2018-11-20T05:02:40.889Z,13.43
2018-11-20T05:05:28.930Z,13.30
2018-11-20T05:08:16.764Z,12.80
2018-11-20T05:14:10.527Z,15.60
2018-11-20T05:16:57.758Z,15.67
2018-11-20T05:19:45.304Z,19.50
2018-11-20T05:22:32.937Z,15.60
2018-11-20T05:25:20.389Z,16.03
2018-11-20T05:28:08.134Z,15.57
2018-11-20T05:30:56.766Z,15.50
2018-11-20T05:33:45.720Z,15.33
2018-11-20T05:36:33.760Z,15.40
2018-11-20T05:39:21.343Z,14.83
2018-11-20T05:42:08.571Z,15.10
2018-11-20T05:44:56.574Z,15.47
2018-11-20T05:47:45.311Z,16.37
2018-11-20T05:50:33.083Z,14.93
2018-11-20T05:53:20.815Z,13.83
2018-11-20T05:56:10.322Z,13.63
2018-11-20T05:58:58.258Z,13.23
2018-11-20T06:01:47.838Z,14.70
2018-11-20T06:04:37.065Z,15.27
2018-11-20T06:07:27.544Z,21.10
2018-11-20T06:10:20.092Z,16.20
2018-11-20T06:13:08.120Z,16.00
2018-11-20T06:15:56.960Z,19.73
2018-11-20T06:18:45.801Z,20.10
2018-11-20T06:21:33.096Z,15.30
2018-11-20T06:24:20.557Z,15.63
2018-11-20T06:27:08.758Z,16.07
2018-11-20T06:29:56.545Z,14.53
2018-11-20T06:32:45.198Z,14.67
2018-11-20T06:35:32.183Z,14.47
2018-11-20T06:38:19.697Z,15.93
2018-11-20T06:41:07.268Z,15.97
2018-11-20T06:43:54.566Z,20.62
2018-11-20T06:46:41.980Z,20.37
2018-11-20T06:49:29.618Z,16.60
2018-11-20T06:52:22.517Z,15.60
2018-11-20T06:55:18.427Z,14.97
2018-11-20T06:58:12.571Z,15.30
2018-11-20T07:01:05.891Z,14.97
2018-11-20T07:03:52.801Z,13.20
2018-11-20T07:06:40.241Z,19.08
2018-11-20T07:09:28.064Z,15.03
2018-11-20T07:12:23.384Z,14.90
2018-11-20T07:15:12.957Z,13.23
2018-11-20T07:18:00.524Z,14.90
2018-11-20T07:20:47.598Z,18.30
2018-11-20T07:26:40.980Z,14.03
2018-11-20T07:29:28.638Z,13.80
2018-11-20T07:32:16.094Z,18.35
2018-11-20T07:35:03.979Z,18.15
2018-11-20T07:37:51.055Z,16.07
2018-11-20T07:40:38.889Z,13.67
2018-11-20T07:43:26.508Z,13.97
2018-11-20T07:46:13.552Z,14.43
2018-11-20T07:49:01.524Z,14.03
2018-11-20T07:51:49.730Z,18.48
2018-11-20T07:54:37.219Z,15.50
2018-11-20T07:57:25.300Z,14.20
2018-11-20T08:00:12.872Z,14.20
2018-11-20T08:03:00.971Z,14.53
2018-11-20T08:05:48.875Z,14.10
2018-11-20T08:08:36.028Z,13.57
2018-11-20T08:11:27.861Z,15.00
2018-11-20T08:14:16.193Z,15.70
2018-11-20T08:17:04.339Z,15.93
2018-11-20T08:19:52.218Z,15.40
2018-11-20T08:22:40.532Z,19.80
2018-11-20T08:25:28.438Z,15.77
2018-11-20T08:28:16.179Z,15.17
2018-11-20T08:31:04.293Z,15.57
2018-11-20T08:33:51.826Z,14.67
2018-11-20T08:36:39.457Z,15.07
2018-11-20T08:39:27.885Z,14.63
2018-11-20T08:42:15.417Z,19.77
2018-11-20T08:45:02.712Z,14.80
2018-11-20T08:47:50.428Z,14.50
2018-11-20T08:50:37.984Z,15.20
2018-11-20T08:53:25.477Z,14.70
2018-11-20T08:56:13.209Z,15.97
2018-11-20T08:59:01.285Z,14.97
2018-11-20T09:01:50.454Z,19.50
2018-11-20T09:04:39.381Z,18.70
2018-11-20T09:07:27.263Z,15.80
2018-11-20T09:10:15.416Z,15.60
2018-11-20T09:13:02.424Z,14.53
2018-11-20T09:15:49.667Z,14.40
2018-11-20T09:18:37.098Z,14.97
2018-11-20T09:21:25.477Z,15.73
2018-11-20T09:24:13.081Z,15.30
2018-11-20T09:27:00.491Z,16.17
2018-11-20T09:29:48.117Z,14.67
2018-11-20T09:32:35.317Z,14.87
2018-11-20T09:35:23.094Z,14.33
2018-11-20T09:38:09.951Z,15.77
2018-11-20T09:40:57.197Z,15.13
2018-11-20T09:43:44.571Z,14.87
2018-11-20T09:46:32.898Z,20.37
2018-11-20T09:49:20.108Z,17.07
2018-11-20T09:52:07.611Z,15.03
2018-11-20T09:54:54.946Z,18.73
2018-11-20T09:57:42.203Z,13.90
2018-11-20T10:00:29.735Z,14.47
2018-11-20T10:03:17.150Z,14.33
2018-11-20T10:08:35.464Z,14.57
2018-11-20T10:11:23.145Z,17.70
2018-11-20T10:14:10.429Z,14.93
2018-11-20T10:16:57.381Z,14.70
2018-11-20T10:19:46.397Z,14.63
2018-11-20T10:22:33.656Z,14.57
2018-11-20T10:25:20.878Z,13.73
2018-11-20T10:28:07.907Z,13.87
2018-11-20T10:30:55.210Z,14.90
2018-11-20T10:33:42.530Z,18.42
2018-11-20T10:36:30.829Z,15.63
2018-11-20T10:39:18.352Z,14.90
2018-11-20T10:42:09.781Z,18.05
2018-11-20T10:44:57.392Z,16.43
2018-11-20T10:47:48.369Z,16.10
2018-11-20T10:50:35.758Z,16.60
2018-11-20T10:53:23.852Z,14.97
2018-11-20T10:56:11.518Z,14.67
2018-11-20T10:58:58.756Z,19.55
2018-11-20T11:01:46.179Z,15.70
2018-11-20T11:04:33.712Z,15.10
2018-11-20T11:07:21.059Z,15.10
2018-11-20T11:10:08.239Z,18.98
2018-11-20T11:12:55.431Z,15.27
2018-11-20T11:15:42.933Z,15.23
2018-11-20T11:18:30.931Z,15.07
2018-11-20T11:21:18.137Z,13.87
2018-11-20T11:24:05.404Z,14.67
2018-11-20T11:26:52.574Z,15.67
2018-11-20T11:29:40.278Z,15.63
2018-11-20T11:32:27.696Z,12.93
2018-11-20T11:35:15.128Z,14.93
2018-11-20T11:38:02.566Z,18.80
2018-11-20T11:40:50.039Z,13.93
2018-11-20T11:43:37.540Z,13.80
2018-11-20T11:46:25.035Z,14.97
2018-11-20T11:49:12.403Z,19.55
2018-11-20T11:52:00.002Z,14.97
2018-11-20T11:54:47.219Z,14.63
2018-11-20T11:57:34.728Z,14.43
2018-11-20T12:00:22.804Z,15.17
2018-11-20T12:05:56.128Z,14.53
2018-11-20T12:08:44.021Z,15.03
2018-11-20T12:11:32.074Z,14.73
2018-11-20T12:14:20.036Z,14.73
2018-11-20T12:17:07.515Z,14.83
2018-11-20T12:19:55.897Z,14.27
2018-11-20T12:22:43.872Z,14.40
2018-11-20T12:25:31.557Z,13.67
2018-11-20T12:28:19.129Z,13.60
2018-11-20T12:31:06.434Z,14.23
2018-11-20T12:33:53.750Z,15.13
2018-11-20T12:36:41.198Z,15.37
2018-11-20T12:39:28.563Z,15.83
2018-11-20T12:42:17.043Z,19.35
2018-11-20T12:45:04.401Z,15.93
2018-11-20T12:47:51.478Z,17.10
2018-11-20T12:50:39.238Z,16.27
2018-11-20T12:53:27.454Z,15.50
2018-11-20T12:56:15.070Z,15.20
2018-11-20T12:59:02.717Z,14.73
2018-11-20T13:01:50.369Z,16.20
2018-11-20T13:04:39.510Z,16.50
2018-11-20T13:07:26.963Z,16.03
2018-11-20T13:10:14.306Z,15.27
2018-11-20T13:13:01.527Z,16.17
2018-11-20T13:15:51.488Z,15.53
2018-11-20T13:18:37.435Z,16.23
2018-11-20T13:21:24.769Z,20.05
2018-11-20T13:24:13.631Z,16.10
2018-11-20T13:27:00.148Z,15.70
2018-11-20T13:29:47.962Z,14.70
2018-11-20T13:32:39.388Z,15.70
2018-11-20T13:35:27.514Z,14.37
2018-11-20T13:38:14.637Z,20.83
2018-11-20T13:41:27.766Z,17.40
2018-11-20T13:44:14.955Z,15.47
2018-11-20T13:47:04.035Z,15.50
2018-11-20T13:49:51.929Z,15.60
2018-11-20T13:55:45.294Z,16.80
2018-11-20T13:58:34.898Z,16.53
2018-11-20T14:04:29.268Z,14.37
2018-11-20T14:07:16.649Z,16.50
2018-11-20T14:10:19.393Z,14.57
2018-11-20T14:13:07.672Z,15.47
2018-11-20T14:19:18.496Z,17.20
2018-11-20T14:22:04.345Z,16.90
2018-11-20T14:24:54.156Z,16.03
2018-11-20T14:27:41.292Z,16.53
2018-11-20T14:30:31.397Z,16.47
2018-11-20T14:36:39.426Z,16.23
2018-11-20T14:39:43.744Z,16.90
2018-11-20T14:42:31.520Z,16.97
2018-11-20T14:45:36.749Z,16.07
2018-11-20T14:48:24.604Z,16.33
2018-11-20T14:51:13.762Z,17.30
2018-11-20T14:54:02.378Z,16.10
2018-11-20T14:56:50.062Z,15.53
2018-11-20T14:59:52.432Z,16.57
2018-11-20T15:02:39.672Z,30.45
2018-11-20T15:14:48.189Z,15.33
2018-11-20T15:17:35.798Z,15.73
2018-11-20T15:20:24.638Z,22.73
2018-11-20T15:23:12.267Z,17.13
2018-11-20T15:26:04.835Z,15.33
2018-11-20T15:28:52.978Z,16.00
2018-11-20T15:31:41.263Z,15.70
2018-11-20T15:34:28.957Z,15.40
2018-11-20T15:37:18.331Z,15.90
2018-11-20T15:43:13.554Z,15.90
2018-11-20T15:46:04.179Z,16.37
2018-11-20T15:48:51.849Z,15.97
2018-11-20T15:51:39.883Z,24.03
2018-11-20T16:00:56.705Z,18.03
2018-11-20T16:07:12.542Z,17.97
2018-11-20T16:10:03.272Z,18.43
2018-11-20T16:12:50.607Z,17.43
2018-11-20T16:15:42.245Z,18.67
2018-11-20T16:18:31.850Z,19.63
2018-11-20T16:21:42.920Z,18.83
2018-11-20T16:24:31.947Z,18.40
2018-11-20T16:27:19.743Z,18.97
2018-11-20T16:30:07.107Z,17.63
2018-11-20T16:32:54.634Z,18.30
2018-11-20T16:35:41.931Z,18.00
2018-11-20T16:38:33.436Z,20.10
2018-11-20T16:41:20.464Z,17.33
2018-11-20T16:44:26.746Z,16.83
2018-11-20T16:47:15.190Z,18.47
2018-11-20T16:50:02.416Z,18.03
2018-11-20T16:52:54.801Z,18.33
2018-11-20T16:55:42.459Z,18.27
2018-11-20T16:58:30.023Z,19.17
2018-11-20T17:01:17.758Z,18.63
2018-11-20T17:07:15.686Z,18.73
2018-11-20T17:10:05.585Z,18.13
2018-11-20T17:12:53.457Z,18.50
2018-11-20T17:15:43.313Z,17.33
2018-11-20T17:18:41.845Z,19.77
2018-11-20T17:24:37.818Z,17.40
2018-11-20T17:27:25.838Z,18.40
2018-11-20T17:30:15.280Z,18.77
2018-11-20T17:33:02.342Z,18.70
2018-11-20T17:35:52.192Z,19.10
2018-11-20T17:38:41.895Z,18.13
2018-11-20T17:41:40.050Z,19.47
2018-11-20T17:44:27.951Z,18.20
2018-11-20T17:47:15.398Z,19.37
2018-11-20T17:50:16.123Z,19.83
2018-11-20T17:53:06.698Z,19.13
2018-11-20T17:55:57.111Z,19.90
2018-11-20T17:58:46.568Z,18.97
2018-11-20T18:01:34.209Z,19.53
2018-11-20T18:04:21.376Z,19.80
2018-11-20T18:07:09.417Z,19.20
2018-11-20T18:09:56.673Z,19.47
2018-11-20T18:12:45.282Z,19.57
2018-11-20T18:15:32.739Z,20.23
2018-11-20T18:21:30.832Z,19.83
2018-11-20T18:24:23.285Z,20.30
2018-11-20T18:27:06.535Z,19.47
2018-11-20T18:29:54.395Z,27.67
2018-11-20T18:32:41.980Z,20.67
2018-11-20T18:35:29.503Z,20.13
2018-11-20T18:38:16.855Z,20.97
2018-11-20T18:41:06.039Z,20.20
2018-11-20T18:43:53.359Z,19.10
2018-11-20T18:46:45.974Z,18.60
2018-11-20T18:49:33.774Z,27.67
2018-11-20T18:52:20.827Z,20.70
2018-11-20T18:58:14.932Z,19.37
2018-11-20T19:01:02.744Z,20.57
2018-11-20T19:03:54.321Z,18.93
2018-11-20T19:06:41.775Z,19.57
2018-11-20T19:09:29.452Z,28.33
2018-11-20T19:12:16.711Z,29.20
2018-11-20T19:15:05.373Z,27.92
2018-11-20T19:17:53.170Z,27.43
2018-11-20T19:20:40.382Z,21.07
2018-11-20T19:23:27.463Z,28.10
2018-11-20T19:26:17.051Z,21.80
2018-11-20T19:29:04.754Z,19.27
2018-11-20T19:31:53.390Z,19.37
2018-11-20T19:34:45.442Z,18.40
2018-11-20T19:37:33.776Z,28.02
2018-11-20T19:40:22.037Z,21.33
2018-11-20T19:43:09.897Z,20.53
2018-11-20T19:45:58.559Z,19.73
2018-11-20T19:52:00.577Z,19.90
2018-11-20T19:54:42.140Z,20.03
2018-11-20T19:57:29.459Z,21.17
2018-11-20T20:00:18.449Z,19.57
2018-11-20T20:03:06.753Z,20.27
2018-11-20T20:05:54.275Z,21.10
2018-11-20T20:08:41.960Z,19.93
2018-11-20T20:11:30.305Z,20.27
2018-11-20T20:14:19.241Z,19.37
2018-11-20T20:17:07.391Z,20.47
2018-11-20T20:19:55.258Z,27.77
2018-11-20T20:22:43.576Z,21.87
2018-11-20T20:25:31.892Z,20.90
2018-11-20T20:28:22.409Z,19.43
2018-11-20T20:31:09.885Z,20.30
2018-11-20T20:34:00.580Z,19.90
2018-11-20T20:36:49.621Z,19.97
2018-11-20T20:39:38.259Z,19.73
2018-11-20T20:42:27.122Z,19.90
2018-11-20T20:45:15.045Z,20.70
2018-11-20T20:48:02.602Z,20.63
2018-11-20T20:50:50.702Z,21.70
2018-11-20T20:53:37.739Z,20.40
2018-11-20T20:56:26.712Z,19.87
2018-11-20T20:59:14.182Z,20.53
2018-11-20T21:02:04.193Z,27.90
2018-11-20T21:04:52.024Z,27.55
2018-11-20T21:07:43.419Z,22.13
2018-11-20T21:13:39.122Z,20.63
2018-11-20T21:16:27.948Z,19.63
2018-11-20T21:19:15.849Z,21.00
2018-11-20T21:22:03.941Z,19.40
2018-11-20T21:24:52.036Z,19.33
2018-11-20T21:27:40.678Z,29.33
2018-11-20T21:30:28.365Z,22.03
2018-11-20T21:33:16.872Z,28.95
2018-11-20T21:36:07.560Z,21.33
2018-11-20T21:38:56.294Z,28.12
2018-11-20T21:41:46.047Z,22.23
2018-11-20T21:44:34.528Z,21.73
2018-11-20T21:47:22.374Z,21.77
2018-11-20T21:50:12.748Z,28.90
2018-11-20T21:53:00.006Z,22.07
2018-11-20T21:55:49.256Z,22.03
2018-11-20T21:58:36.901Z,21.33
2018-11-20T22:01:25.324Z,19.47
2018-11-20T22:04:14.566Z,21.60
2018-11-20T22:07:02.417Z,30.27
2018-11-20T22:09:50.170Z,22.60
2018-11-20T22:12:37.698Z,21.50
2018-11-20T22:15:25.839Z,21.57
2018-11-20T22:18:13.875Z,21.53
2018-11-20T22:21:02.007Z,22.17
2018-11-20T22:23:49.903Z,21.40
2018-11-20T22:26:38.113Z,20.10
2018-11-20T22:29:25.637Z,21.60
2018-11-20T22:32:15.192Z,21.43
2018-11-20T22:35:02.880Z,20.37
2018-11-20T22:37:50.441Z,21.97
2018-11-20T22:40:38.147Z,20.77
2018-11-20T22:43:26.056Z,20.53
2018-11-20T22:46:13.705Z,21.17
2018-11-20T22:49:01.943Z,21.87
2018-11-20T22:51:51.213Z,22.27
2018-11-20T22:54:40.877Z,20.97
2018-11-20T22:57:28.583Z,31.25
2018-11-20T23:00:16.652Z,22.97
2018-11-20T23:03:04.879Z,22.33
2018-11-20T23:05:52.449Z,22.17
2018-11-20T23:08:41.391Z,22.77
2018-11-20T23:11:29.323Z,20.43
2018-11-20T23:14:17.400Z,20.97
2018-11-20T23:17:07.953Z,21.40
2018-11-20T23:19:55.709Z,20.17
2018-11-20T23:22:43.707Z,21.43
2018-11-20T23:25:31.547Z,30.45
2018-11-20T23:28:18.580Z,30.50
2018-11-20T23:31:05.953Z,23.70
2018-11-20T23:33:53.685Z,22.50
2018-11-20T23:36:42.808Z,22.73
2018-11-20T23:39:32.837Z,22.87
2018-11-20T23:42:23.828Z,21.17
2018-11-20T23:45:08.360Z,29.17
2018-11-20T23:47:55.695Z,21.67
2018-11-20T23:50:48.445Z,21.17
2018-11-20T23:53:35.866Z,21.60
2018-11-20T23:56:23.267Z,22.83
2018-11-20T23:59:12.465Z,21.27
